createdAt,value
2023-03-06T00:01:11.509Z,83.10
2023-03-06T00:03:40.366Z,82.96
2023-03-06T00:06:07.502Z,82.86
2023-03-06T00:08:33.974Z,83.17
2023-03-06T00:11:00.374Z,82.87
2023-03-06T00:13:28.284Z,83.55
2023-03-06T00:15:59.525Z,82.96
2023-03-06T00:18:25.985Z,83.37
2023-03-06T00:20:52.508Z,82.71
2023-03-06T00:23:19.026Z,82.35
2023-03-06T00:25:46.318Z,82.20
2023-03-06T00:28:13.338Z,81.50
2023-03-06T00:30:42.408Z,82.22
2023-03-06T00:33:10.239Z,82.70
2023-03-06T00:35:39.006Z,82.21
2023-03-06T00:38:05.576Z,82.16
2023-03-06T00:40:32.604Z,83.17
2023-03-06T00:42:59.821Z,82.00
2023-03-06T00:45:26.308Z,82.70
2023-03-06T00:47:52.692Z,82.85
2023-03-06T00:50:20.427Z,82.27
2023-03-06T00:52:46.854Z,82.71
2023-03-06T00:55:16.374Z,82.76
2023-03-06T00:57:44.056Z,83.06
2023-03-06T01:00:15.617Z,82.45
2023-03-06T01:02:47.881Z,82.06
2023-03-06T01:05:16.113Z,81.53
2023-03-06T01:07:51.225Z,81.89
2023-03-06T01:10:19.157Z,83.10
2023-03-06T01:12:47.415Z,81.88
2023-03-06T01:15:14.047Z,82.79
2023-03-06T01:17:50.778Z,82.53
2023-03-06T01:20:17.911Z,82.78
2023-03-06T01:22:48.248Z,82.90
2023-03-06T01:25:15.286Z,82.55
2023-03-06T01:27:42.575Z,82.72
2023-03-06T01:30:12.702Z,82.55
2023-03-06T01:32:39.163Z,83.99
2023-03-06T01:35:07.640Z,83.31
2023-03-06T01:37:35.206Z,83.55
2023-03-06T01:40:05.935Z,84.02
2023-03-06T01:42:32.472Z,82.80
2023-03-06T01:45:06.016Z,82.67
2023-03-06T01:47:34.302Z,83.86
2023-03-06T01:50:02.654Z,83.94
2023-03-06T01:52:32.970Z,83.33
2023-03-06T01:55:02.670Z,82.49
2023-03-06T01:57:33.774Z,83.10
2023-03-06T02:00:04.434Z,82.46
2023-03-06T02:02:43.413Z,83.67
2023-03-06T02:05:16.417Z,83.85
2023-03-06T02:07:44.204Z,83.19
2023-03-06T02:10:19.260Z,83.00
2023-03-06T02:12:49.093Z,83.27
2023-03-06T02:15:18.634Z,83.22
2023-03-06T02:17:47.585Z,82.72
2023-03-06T02:20:22.541Z,83.52
2023-03-06T02:22:54.082Z,83.83
2023-03-06T02:25:36.004Z,83.41
2023-03-06T02:28:03.840Z,83.33
2023-03-06T02:30:30.746Z,83.95
2023-03-06T02:32:58.158Z,83.51
2023-03-06T02:35:26.396Z,83.78
2023-03-06T02:37:54.018Z,83.85
2023-03-06T02:40:23.186Z,84.42
2023-03-06T02:42:53.518Z,83.78
2023-03-06T02:45:25.637Z,83.77
2023-03-06T02:47:52.056Z,84.09
2023-03-06T02:50:18.667Z,84.18
2023-03-06T02:52:45.178Z,84.42
2023-03-06T02:55:11.761Z,84.65
2023-03-06T02:57:38.246Z,83.60
2023-03-06T03:00:07.569Z,83.76
2023-03-06T03:02:34.104Z,85.39
2023-03-06T03:05:00.547Z,83.93
2023-03-06T03:07:35.738Z,83.78
2023-03-06T03:10:03.911Z,84.35
2023-03-06T03:12:31.977Z,84.20
2023-03-06T03:14:58.961Z,84.88
2023-03-06T03:17:30.253Z,84.61
2023-03-06T03:20:00.012Z,84.35
2023-03-06T03:22:26.541Z,84.66
2023-03-06T03:24:53.090Z,84.17
2023-03-06T03:27:32.299Z,84.82
2023-03-06T03:30:00.474Z,84.75
2023-03-06T03:32:30.251Z,84.78
2023-03-06T03:35:17.973Z,84.09
2023-03-06T03:37:47.825Z,83.53
2023-03-06T03:40:17.737Z,84.11
2023-03-06T03:42:45.943Z,85.13
2023-03-06T03:45:14.870Z,84.99
2023-03-06T03:47:50.246Z,84.68
2023-03-06T03:50:16.886Z,84.79
2023-03-06T03:52:43.854Z,83.91
2023-03-06T03:55:15.763Z,84.13
2023-03-06T03:57:44.715Z,85.00
2023-03-06T04:00:13.195Z,84.72
2023-03-06T04:02:58.220Z,84.84
2023-03-06T04:05:32.642Z,86.06
2023-03-06T04:07:59.912Z,85.70
2023-03-06T04:10:26.358Z,84.61
2023-03-06T04:12:53.806Z,84.55
2023-03-06T04:15:20.383Z,85.06
2023-03-06T04:17:47.809Z,85.98
2023-03-06T04:20:19.511Z,84.92
2023-03-06T04:22:47.003Z,84.01
2023-03-06T04:25:16.239Z,84.60
2023-03-06T04:27:42.820Z,84.57
2023-03-06T04:30:11.381Z,85.01
2023-03-06T04:32:37.979Z,84.63
2023-03-06T04:35:05.435Z,83.75
2023-03-06T04:37:38.038Z,84.13
2023-03-06T04:40:06.115Z,85.50
2023-03-06T04:42:32.827Z,85.90
2023-03-06T04:44:59.259Z,85.46
2023-03-06T04:47:25.735Z,84.74
2023-03-06T04:49:52.158Z,84.48
2023-03-06T04:52:18.562Z,84.92
2023-03-06T04:54:46.286Z,85.13
2023-03-06T04:57:14.334Z,85.35
2023-03-06T04:59:40.820Z,85.35
2023-03-06T05:02:09.470Z,85.75
2023-03-06T05:04:35.953Z,85.86
2023-03-06T05:07:02.389Z,85.85
2023-03-06T05:09:28.909Z,85.54
2023-03-06T05:11:56.722Z,86.05
2023-03-06T05:14:23.140Z,85.43
2023-03-06T05:16:49.606Z,85.47
2023-03-06T05:19:16.449Z,84.77
2023-03-06T05:21:43.037Z,85.36
2023-03-06T05:24:11.610Z,85.38
2023-03-06T05:26:38.104Z,85.31
2023-03-06T05:29:06.070Z,85.62
2023-03-06T05:31:32.610Z,85.70
2023-03-06T05:33:59.167Z,86.24
2023-03-06T05:36:25.580Z,86.12
2023-03-06T05:38:52.349Z,86.56
2023-03-06T05:41:18.760Z,86.61
2023-03-06T05:43:46.809Z,86.99
2023-03-06T05:46:17.374Z,87.71
2023-03-06T05:48:45.346Z,87.31
2023-03-06T05:51:13.216Z,87.51
2023-03-06T05:53:42.405Z,87.11
2023-03-06T05:56:15.828Z,86.95
2023-03-06T05:58:51.194Z,87.52
2023-03-06T06:01:20.587Z,87.66
2023-03-06T06:03:47.427Z,87.02
2023-03-06T06:06:16.806Z,86.73
2023-03-06T06:08:44.971Z,87.24
2023-03-06T06:11:16.500Z,88.33
2023-03-06T06:13:42.933Z,87.76
2023-03-06T06:16:11.954Z,87.30
2023-03-06T06:18:49.350Z,86.55
2023-03-06T06:21:17.886Z,86.76
2023-03-06T06:23:45.639Z,86.93
2023-03-06T06:26:16.629Z,85.28
2023-03-06T06:28:48.877Z,85.94
2023-03-06T06:31:18.366Z,85.03
2023-03-06T06:33:48.509Z,85.67
2023-03-06T06:36:19.386Z,85.47
2023-03-06T06:38:48.538Z,84.86
2023-03-06T06:44:06.711Z,84.36
2023-03-06T06:47:21.240Z,85.16
2023-03-06T06:49:22.916Z,84.58
2023-03-06T06:51:49.346Z,84.85
2023-03-06T06:54:16.050Z,83.53
2023-03-06T06:56:46.812Z,83.40
2023-03-06T06:59:17.009Z,83.85
2023-03-06T07:01:44.415Z,82.93
2023-03-06T07:04:13.100Z,82.89
2023-03-06T07:06:46.642Z,83.09
2023-03-06T07:09:18.922Z,82.77
2023-03-06T07:11:45.365Z,82.81
2023-03-06T07:14:18.153Z,82.09
2023-03-06T07:16:46.860Z,83.14
2023-03-06T07:19:15.307Z,83.70
2023-03-06T07:21:45.451Z,83.42
2023-03-06T07:24:11.908Z,83.71
2023-03-06T07:26:38.451Z,83.19
2023-03-06T07:29:05.077Z,83.86
2023-03-06T07:31:32.279Z,84.83
2023-03-06T07:33:59.100Z,84.20
2023-03-06T07:36:25.631Z,84.77
2023-03-06T07:38:53.457Z,84.45
2023-03-06T07:41:22.469Z,85.57
2023-03-06T07:43:49.874Z,85.87
2023-03-06T07:46:17.042Z,86.71
2023-03-06T07:48:44.917Z,86.10
2023-03-06T07:51:16.919Z,86.56
2023-03-06T07:53:45.840Z,86.45
2023-03-06T07:56:21.453Z,86.51
2023-03-06T07:58:51.147Z,87.02
2023-03-06T08:01:21.512Z,87.20
2023-03-06T08:03:48.435Z,87.75
2023-03-06T08:06:21.319Z,88.12
2023-03-06T08:08:49.606Z,87.68
2023-03-06T08:11:19.325Z,88.36
2023-03-06T08:13:48.616Z,88.61
2023-03-06T08:16:19.359Z,89.20
2023-03-06T08:18:48.935Z,88.73
2023-03-06T08:21:16.189Z,88.72
2023-03-06T08:23:46.878Z,89.12
2023-03-06T08:26:16.196Z,89.18
2023-03-06T08:28:52.290Z,89.15
2023-03-06T08:31:26.084Z,89.46
2023-03-06T08:33:52.815Z,89.53
2023-03-06T08:36:19.288Z,89.56
2023-03-06T08:38:47.743Z,90.04
2023-03-06T08:41:16.946Z,90.32
2023-03-06T08:43:47.424Z,89.61
2023-03-06T08:46:16.195Z,90.21
2023-03-06T08:48:48.521Z,90.88
2023-03-06T08:51:18.380Z,90.61
2023-03-06T08:53:47.151Z,90.72
2023-03-06T08:56:17.934Z,90.33
2023-03-06T08:58:46.413Z,90.80
2023-03-06T09:01:17.199Z,90.31
2023-03-06T09:03:46.612Z,89.42
2023-03-06T09:06:15.752Z,89.37
2023-03-06T09:08:46.436Z,90.56
2023-03-06T09:11:18.795Z,89.43
2023-03-06T09:13:46.673Z,90.50
2023-03-06T09:16:15.923Z,89.49
2023-03-06T09:18:45.413Z,88.74
2023-03-06T09:21:13.840Z,90.25
2023-03-06T09:23:46.587Z,89.07
2023-03-06T09:26:14.615Z,90.00
2023-03-06T09:28:47.385Z,89.72
2023-03-06T09:31:18.829Z,88.41
2023-03-06T09:33:48.262Z,88.72
2023-03-06T09:36:17.166Z,89.36
2023-03-06T09:38:48.767Z,87.91
2023-03-06T09:41:28.936Z,88.30
2023-03-06T09:44:03.290Z,87.48
2023-03-06T09:46:41.812Z,88.29
2023-03-06T09:49:32.770Z,87.96
2023-03-06T09:52:08.019Z,85.85
2023-03-06T09:54:44.273Z,84.46
2023-03-06T09:57:21.080Z,84.07
2023-03-06T09:59:54.238Z,82.56
2023-03-06T10:02:29.190Z,83.10
2023-03-06T10:05:00.284Z,83.33
2023-03-06T10:07:33.453Z,83.72
2023-03-06T10:10:03.138Z,84.34
2023-03-06T10:12:35.276Z,82.50
2023-03-06T10:15:14.189Z,84.49
2023-03-06T10:17:43.764Z,83.91
2023-03-06T10:20:18.622Z,84.47
2023-03-06T10:23:03.161Z,83.62
2023-03-06T10:25:36.299Z,84.14
2023-03-06T10:28:13.894Z,84.78
2023-03-06T10:30:53.763Z,85.51
2023-03-06T10:33:26.653Z,84.36
2023-03-06T10:35:54.648Z,84.74
2023-03-06T10:38:22.965Z,84.73
2023-03-06T10:41:06.034Z,83.63
2023-03-06T10:43:35.805Z,83.82
2023-03-06T10:46:05.242Z,82.04
2023-03-06T10:48:32.672Z,83.66
2023-03-06T10:51:18.915Z,83.73
2023-03-06T10:53:51.497Z,82.17
2023-03-06T10:56:27.583Z,83.02
2023-03-06T10:59:08.795Z,83.74
2023-03-06T11:01:37.611Z,81.68
2023-03-06T11:04:16.814Z,80.88
2023-03-06T11:07:03.818Z,81.39
2023-03-06T11:09:30.289Z,80.00
2023-03-06T11:12:19.225Z,80.83
2023-03-06T11:14:45.688Z,79.16
2023-03-06T11:17:27.269Z,78.34
2023-03-06T11:20:15.986Z,76.89
2023-03-06T11:22:49.029Z,77.43
2023-03-06T11:25:18.305Z,77.62
2023-03-06T11:27:53.108Z,76.77
2023-03-06T11:30:23.825Z,76.98
2023-03-06T11:32:55.240Z,78.43
2023-03-06T11:35:24.586Z,79.72
2023-03-06T11:37:55.216Z,80.06
2023-03-06T11:40:24.370Z,80.67
2023-03-06T11:42:59.175Z,81.04
2023-03-06T11:45:28.989Z,80.33
2023-03-06T11:48:05.227Z,80.19
2023-03-06T11:50:35.652Z,81.27
2023-03-06T11:53:03.684Z,80.85
2023-03-06T11:55:45.677Z,81.06
2023-03-06T11:58:35.317Z,80.93
2023-03-06T12:01:07.322Z,80.50
2023-03-06T12:03:52.057Z,81.17
2023-03-06T12:06:24.706Z,80.90
2023-03-06T12:09:01.096Z,83.03
2023-03-06T12:11:37.769Z,82.31
2023-03-06T12:14:19.661Z,83.64
2023-03-06T12:17:12.867Z,83.11
2023-03-06T12:20:14.976Z,83.96
2023-03-06T12:22:57.906Z,81.45
2023-03-06T12:25:34.493Z,78.76
2023-03-06T12:28:26.970Z,78.45
2023-03-06T12:31:24.311Z,81.77
2023-03-06T12:34:05.926Z,82.96
2023-03-06T12:36:53.484Z,85.23
2023-03-06T12:39:29.926Z,86.22
2023-03-06T12:42:23.112Z,86.34
2023-03-06T12:45:22.188Z,86.42
2023-03-06T12:47:54.002Z,85.80
2023-03-06T12:50:23.966Z,85.24
2023-03-06T12:52:52.906Z,83.77
2023-03-06T12:55:24.342Z,85.50
2023-03-06T12:57:52.561Z,83.90
2023-03-06T13:01:03.550Z,84.85
2023-03-06T13:03:36.060Z,84.53
2023-03-06T13:06:39.248Z,83.51
2023-03-06T13:09:17.958Z,83.99
2023-03-06T13:12:08.066Z,85.55
2023-03-06T13:14:54.684Z,86.10
2023-03-06T13:17:27.964Z,87.22
2023-03-06T13:20:34.931Z,87.64
2023-03-06T13:23:52.205Z,87.35
2023-03-06T13:26:55.817Z,88.63
2023-03-06T13:29:59.155Z,89.92
2023-03-06T13:32:34.814Z,89.85
2023-03-06T13:35:01.756Z,90.30
2023-03-06T13:37:47.853Z,91.23
2023-03-06T13:40:28.786Z,91.08
2023-03-06T13:43:04.338Z,91.53
2023-03-06T13:45:38.495Z,90.25
2023-03-06T13:48:30.243Z,91.39
2023-03-06T13:50:53.708Z,90.13
2023-03-06T13:54:01.569Z,89.76
2023-03-06T13:57:17.598Z,89.90
2023-03-06T14:00:10.635Z,90.32
2023-03-06T14:02:53.369Z,90.29
2023-03-06T14:05:20.308Z,88.93
2023-03-06T14:07:48.015Z,87.96
2023-03-06T14:10:23.552Z,89.62
2023-03-06T14:13:01.413Z,89.07
2023-03-06T14:15:36.760Z,88.94
2023-03-06T14:18:05.972Z,87.87
2023-03-06T14:20:40.135Z,87.91
2023-03-06T14:23:23.183Z,87.33
2023-03-06T14:25:54.950Z,86.83
2023-03-06T14:28:23.095Z,87.35
2023-03-06T14:30:51.890Z,85.68
2023-03-06T14:33:29.124Z,87.62
2023-03-06T14:35:58.310Z,86.42
2023-03-06T14:38:35.122Z,87.00
2023-03-06T14:41:02.955Z,87.98
2023-03-06T14:43:29.367Z,87.90
2023-03-06T14:45:59.117Z,87.59
2023-03-06T14:48:38.709Z,87.75
2023-03-06T14:51:07.431Z,87.62
2023-03-06T14:53:34.885Z,87.76
2023-03-06T14:56:05.011Z,88.20
2023-03-06T14:58:36.304Z,87.59
2023-03-06T15:01:08.244Z,87.73
2023-03-06T15:03:45.678Z,89.01
2023-03-06T15:06:22.459Z,88.69
2023-03-06T15:08:59.499Z,87.22
2023-03-06T15:11:26.144Z,88.29
2023-03-06T15:14:03.034Z,86.91
2023-03-06T15:16:31.431Z,87.11
2023-03-06T15:19:00.121Z,87.75
2023-03-06T15:21:29.370Z,87.58
2023-03-06T15:23:57.495Z,88.43
2023-03-06T15:26:30.485Z,88.14
2023-03-06T15:29:08.906Z,86.77
2023-03-06T15:31:38.987Z,88.12
2023-03-06T15:34:17.698Z,88.58
2023-03-06T15:36:48.721Z,88.43
2023-03-06T15:39:33.836Z,88.01
2023-03-06T15:42:01.178Z,88.14
2023-03-06T15:44:30.496Z,88.38
2023-03-06T15:47:08.436Z,88.88
2023-03-06T15:49:37.241Z,88.76
2023-03-06T15:52:05.871Z,87.03
2023-03-06T15:54:33.076Z,88.05
2023-03-06T15:56:59.835Z,88.50
2023-03-06T15:59:28.887Z,89.07
2023-03-06T16:01:55.350Z,88.29
2023-03-06T16:04:23.122Z,87.79
2023-03-06T16:06:49.567Z,87.71
2023-03-06T16:09:16.065Z,87.43
2023-03-06T16:11:47.719Z,88.90
2023-03-06T16:14:18.737Z,88.20
2023-03-06T16:16:48.930Z,89.14
2023-03-06T16:19:27.894Z,87.91
2023-03-06T16:21:56.606Z,89.12
2023-03-06T16:24:23.251Z,88.02
2023-03-06T16:26:51.410Z,89.05
2023-03-06T16:29:19.221Z,88.22
2023-03-06T16:31:48.396Z,87.76
2023-03-06T16:34:16.805Z,88.80
2023-03-06T16:36:45.849Z,88.48
2023-03-06T16:39:16.891Z,88.63
2023-03-06T16:41:43.744Z,88.88
2023-03-06T16:44:10.240Z,87.96
2023-03-06T16:46:41.304Z,87.99
2023-03-06T16:49:16.399Z,88.80
2023-03-06T16:51:48.378Z,88.71
2023-03-06T16:54:17.754Z,89.08
2023-03-06T16:56:46.100Z,88.69
2023-03-06T16:59:15.532Z,88.55
2023-03-06T17:01:48.063Z,88.70
2023-03-06T17:04:14.695Z,88.48
2023-03-06T17:06:47.331Z,88.69
2023-03-06T17:09:13.848Z,88.71
2023-03-06T17:11:44.269Z,89.33
2023-03-06T17:14:11.965Z,88.01
2023-03-06T17:16:47.580Z,88.66
2023-03-06T17:19:17.601Z,88.85
2023-03-06T17:21:50.092Z,89.50
2023-03-06T17:24:18.333Z,89.47
2023-03-06T17:26:47.912Z,89.60
2023-03-06T17:29:14.657Z,89.32
2023-03-06T17:31:45.509Z,89.99
2023-03-06T17:34:18.001Z,90.15
2023-03-06T17:36:46.452Z,88.66
2023-03-06T17:39:14.231Z,89.28
2023-03-06T17:41:47.059Z,89.06
2023-03-06T17:44:17.537Z,89.36
2023-03-06T17:46:44.196Z,89.78
2023-03-06T17:49:17.101Z,90.40
2023-03-06T17:51:49.559Z,90.75
2023-03-06T17:54:16.112Z,91.45
2023-03-06T17:56:47.516Z,91.04
2023-03-06T17:59:16.602Z,90.78
2023-03-06T18:01:48.801Z,90.98
2023-03-06T18:04:17.115Z,91.09
2023-03-06T18:06:46.469Z,90.63
2023-03-06T18:09:15.717Z,90.85
2023-03-06T18:11:46.152Z,91.97
2023-03-06T18:14:20.320Z,92.85
2023-03-06T18:16:48.163Z,92.78
2023-03-06T18:19:16.579Z,93.09
2023-03-06T18:21:48.929Z,93.25
2023-03-06T18:24:18.410Z,93.00
2023-03-06T18:26:46.659Z,93.37
2023-03-06T18:29:18.967Z,93.23
2023-03-06T18:31:45.622Z,93.38
2023-03-06T18:34:18.389Z,92.75
2023-03-06T18:36:48.431Z,92.79
2023-03-06T18:39:15.527Z,92.95
2023-03-06T18:41:48.130Z,92.25
2023-03-06T18:44:16.680Z,92.53
2023-03-06T18:46:46.249Z,92.17
2023-03-06T18:49:15.608Z,92.16
2023-03-06T18:51:43.535Z,91.88
2023-03-06T18:54:17.510Z,92.27
2023-03-06T18:56:46.951Z,92.25
2023-03-06T18:59:19.065Z,93.05
2023-03-06T19:01:48.088Z,93.31
2023-03-06T19:04:17.494Z,92.14
2023-03-06T19:06:47.833Z,91.71
2023-03-06T19:09:16.934Z,91.70
2023-03-06T19:11:46.166Z,92.37
2023-03-06T19:14:14.155Z,92.37
2023-03-06T19:16:42.358Z,91.82
2023-03-06T19:19:08.844Z,92.43
2023-03-06T19:21:35.279Z,92.79
2023-03-06T19:24:03.361Z,92.73
2023-03-06T19:26:29.823Z,92.92
2023-03-06T19:28:56.282Z,93.39
2023-03-06T19:31:25.571Z,93.81
2023-03-06T19:33:53.848Z,93.31
2023-03-06T19:36:21.432Z,93.90
2023-03-06T19:38:47.925Z,93.81
2023-03-06T19:41:18.290Z,94.07
2023-03-06T19:43:45.836Z,94.55
2023-03-06T19:46:16.154Z,94.51
2023-03-06T19:48:47.832Z,95.42
2023-03-06T19:51:17.092Z,95.15
2023-03-06T19:53:49.743Z,95.39
2023-03-06T19:56:20.534Z,94.87
2023-03-06T19:58:46.956Z,96.26
2023-03-06T20:01:20.693Z,95.37
2023-03-06T20:03:50.376Z,95.75
2023-03-06T20:06:18.977Z,96.16
2023-03-06T20:08:47.803Z,96.16
2023-03-06T20:11:17.133Z,96.52
2023-03-06T20:13:50.960Z,96.94
2023-03-06T20:16:18.272Z,96.54
2023-03-06T20:18:49.840Z,97.03
2023-03-06T20:21:19.148Z,96.66
2023-03-06T20:23:48.677Z,96.75
2023-03-06T20:26:18.714Z,97.00
2023-03-06T20:28:47.170Z,97.29
2023-03-06T20:31:19.067Z,97.23
2023-03-06T20:33:49.464Z,97.21
2023-03-06T20:36:19.860Z,96.78
2023-03-06T20:38:50.623Z,97.17
2023-03-06T20:41:20.729Z,97.61
2023-03-06T20:43:49.134Z,97.50
2023-03-06T20:46:18.778Z,97.44
2023-03-06T20:48:49.000Z,97.73
2023-03-06T20:51:20.690Z,97.25
2023-03-06T20:53:48.922Z,97.03
2023-03-06T20:56:19.107Z,97.22
2023-03-06T20:58:47.667Z,96.92
2023-03-06T21:01:19.966Z,97.19
2023-03-06T21:03:48.711Z,97.27
2023-03-06T21:06:17.854Z,97.79
2023-03-06T21:08:48.090Z,97.03
2023-03-06T21:11:18.576Z,97.42
2023-03-06T21:13:47.142Z,97.34
2023-03-06T21:16:21.502Z,98.13
2023-03-06T21:18:48.146Z,97.29
2023-03-06T21:21:20.074Z,97.05
2023-03-06T21:23:49.956Z,97.23
2023-03-06T21:26:25.616Z,97.16
2023-03-06T21:28:52.949Z,97.09
2023-03-06T21:31:21.688Z,97.26
2023-03-06T21:33:49.531Z,97.34
2023-03-06T21:36:21.793Z,96.70
2023-03-06T21:38:49.705Z,96.90
2023-03-06T21:41:24.425Z,97.28
2023-03-06T21:43:56.433Z,96.55
2023-03-06T21:46:25.066Z,96.25
2023-03-06T21:48:52.047Z,95.83
2023-03-06T21:51:20.523Z,96.29
2023-03-06T21:53:47.951Z,95.14
2023-03-06T21:56:22.149Z,95.65
2023-03-06T21:58:48.710Z,95.88
2023-03-06T22:01:18.015Z,96.11
2023-03-06T22:03:48.320Z,95.18
2023-03-06T22:06:17.051Z,95.08
2023-03-06T22:08:46.036Z,95.20
2023-03-06T22:11:20.513Z,95.42
2023-03-06T22:13:47.912Z,95.53
2023-03-06T22:16:17.376Z,95.63
2023-03-06T22:18:50.488Z,95.76
2023-03-06T22:21:19.123Z,95.60
2023-03-06T22:23:49.076Z,95.72
2023-03-06T22:26:17.341Z,96.14
2023-03-06T22:28:51.488Z,95.56
2023-03-06T22:31:21.051Z,94.72
2023-03-06T22:33:50.636Z,95.21
2023-03-06T22:36:17.099Z,96.12
2023-03-06T22:38:48.857Z,96.01
2023-03-06T22:41:18.353Z,96.03
2023-03-06T22:43:45.160Z,95.73
2023-03-06T22:46:19.146Z,96.14
2023-03-06T22:48:45.800Z,96.21
2023-03-06T22:51:18.243Z,96.02
2023-03-06T22:53:47.982Z,96.29
2023-03-06T22:56:19.871Z,95.92
2023-03-06T22:58:48.647Z,95.47
2023-03-06T23:01:22.386Z,95.07
2023-03-06T23:03:51.475Z,95.24
2023-03-06T23:06:21.441Z,95.41
2023-03-06T23:08:50.243Z,95.81
2023-03-06T23:11:18.500Z,94.12
2023-03-06T23:14:03.999Z,94.21
2023-03-06T23:16:48.905Z,93.82
2023-03-06T23:19:34.368Z,93.40
2023-03-06T23:22:20.649Z,92.74
2023-03-06T23:25:06.533Z,93.15
2023-03-06T23:27:35.538Z,94.36
2023-03-06T23:30:02.263Z,93.07
2023-03-06T23:32:28.914Z,92.32
2023-03-06T23:34:55.302Z,93.53
2023-03-06T23:37:23.169Z,93.44
2023-03-06T23:39:49.681Z,92.64
2023-03-06T23:42:16.249Z,92.56
2023-03-06T23:44:44.570Z,93.21
2023-03-06T23:47:11.033Z,92.11
2023-03-06T23:49:37.466Z,93.16
2023-03-06T23:52:04.150Z,92.52
2023-03-06T23:54:31.950Z,92.56
2023-03-06T23:56:58.385Z,92.79
2023-03-06T23:59:24.798Z,91.91
